Detall de PIREP

Printer-friendly versionPDF version

[2008/09/17 16:15:00]
Flight IATA:CT3113
Pilot Number:037
Company ICAO:CAT
Aircraft Type:AT72/F
PAX:38
Departing Airport: LFMP
Destination Airport: LEBL
Alternate Airport:LEPA
Online: VATSIM
Route:SUBIL DCT DIVKO G7 BISBA
Flight Level:FL190
No Slew and time accel
No pause
Crash detect
Detect pilot in Cockpit between each 30 and 45 minutes
16:15 Zero fuel Weight: 40068 Lbs, Fuel Weight: 2572 Lbs
16:15 VATSIM:LFMP 171600Z 06008KT 030V090 9999 OVC016 18/14 Q1015 NOSIG
16:15 VATSIM:LEBL 171600Z 21005KT 9999 FEW025 SCT050 24/18 Q1014 NOSIG
16:20 Parking Brakes off
16:27 Take-off
16:27 Take off Weight: 42589 Lbs
16:27 Wind: 071? @ 008 Knots Heading: 144?
16:27 POS N42? 44? 31?? E002? 52? 18??
16:27 Gear Up: 135 Knots
16:27 Flaps:1 at 135 Knots
16:27 Flaps:0 at 150 Knots
16:42 Wind:103?@017 Knots Heading: 082? Ground Speed: 152 Knots Altitude 18818 ft
16:42 TOC
16:42
Fuel Weight: 2054 Lb
16:57 Wind:172?@006 Knots Heading: 213? Ground Speed: 296 Knots Altitude 19078 ft
17:02 TOD
17:02 Fuel Weight: 1405 Lb
17:12 Wind:141?@001 Knots Heading: 232? Ground Speed: 270 Knots Altitude 11213 ft
17:24 Flaps:1 at 181 Knots
17:26 Flaps:2 at 180 Knots
17:26 Gear Down: 154 Knots
17:27 Wind:220?@007 Knots Heading: 248? Ground Speed: 147 Knots Altitude 1013 ft
17:28 TouchDown:Rate -259 ft/min Speed: 107 Knots
17:28 VATSIM:LEBL 171700Z 22007KT 9999 SCT022 SCT040 24/18 Q1014 NOSIG
17:28 Land
17:28 Wind:222?@007 Knots
17:28 Heading: 244?
17:28 Flight Duration: 01:01
17:28 Landing Weight: 41030 Lbs
17:28 POS N41? 18? 02?? E002? 05? 22??
17:31 Parking brakes on
17:31 Block to Block Duration: 01:11
17:31 Final Fuel: 939 Lbls
17:31 Spent Fuel: 1633 Lbls
17:31 Flight Length: 194 NM
17:31 TOD Land Length: 104 NM

Exportar CSV

Powered by Drupal - Modified by Danger4k